Manila, Kentucky
Current Conditions -  °F | °C
As of 1:35 PM on Friday 24 Oct 2014 (Local Time) from KSJS Reporting Station
Clear Clear  
Wind Chill: 56°   Ceiling: Unl
Heat Index: 56°   Visibility: 10mi
Dew Point: 45°   Wind: 3mph
Humidity: 66%   Direction: 160°SSE
Pressure: 30.1"   Gusts: NA
Location:  37.8399°N, 82.9411°W
Report Text: KSJS 241735Z AUTO 16003KT 10SM CLR 13/07 A3010 RMK AO2 T01340072
Loading
Personal Weather Stations






























Interactive Weather Map
Tropical Storm Tracking
New forecast layout! Learn more

10-Day Weather Forecast

Advertisements
Track Severe Weather on mobile